Time;durP1;ratioP1;P1;durP2;ratioP2;P2;SDS_P1;SDS_P2;PMS_P1;PMS_P2;Temp;Humidity;BMP_temperature;BMP_pressure;BME280_temperature;BME280_humidity;BME280_pressure;Samples;Min_cycle;Max_cycle;Signal;HPM_P1;HPM_P2
2022/03/26 00:01:03;;;;;;;51.95;25.88;;;;;;;13.83;33.21;102201.84;5052710;28;20110;-71
2022/03/26 00:03:30;;;;;;;47.33;26.25;;;;;;;14.00;33.01;102194.84;5053208;28;20056;-72
2022/03/26 00:05:57;;;;;;;51.63;27.05;;;;;;;13.82;33.26;102202.84;5066191;28;20062;-72
2022/03/26 00:08:23;;;;;;;48.47;26.00;;;;;;;13.72;33.55;102199.28;5072968;28;20068;-72
2022/03/26 00:10:49;;;;;;;47.72;25.65;;;;;;;13.90;33.01;102203.97;5073893;28;20145;-72
2022/03/26 00:13:17;;;;;;;52.83;25.70;;;;;;;13.86;33.22;102200.72;5072501;28;20454;-72
2022/03/26 00:15:43;;;;;;;49.55;25.60;;;;;;;13.81;33.37;102200.31;5073132;28;20496;-73
2022/03/26 00:18:15;;;;;;;47.97;25.83;;;;;;;13.51;34.13;102214.81;5072283;28;20049;-73
2022/03/26 00:20:42;;;;;;;49.30;25.27;;;;;;;13.33;34.30;102217.38;5072332;28;20048;-73
2022/03/26 00:23:08;;;;;;;45.20;25.63;;;;;;;13.55;34.04;102213.50;5073303;28;20055;-73
2022/03/26 00:25:36;;;;;;;46.72;25.63;;;;;;;13.57;34.00;102212.38;5070969;28;20136;-73
2022/03/26 00:28:02;;;;;;;48.50;25.15;;;;;;;13.39;34.30;102214.13;5073041;28;20127;-72
2022/03/26 00:30:29;;;;;;;48.08;25.88;;;;;;;13.29;34.36;102216.81;5071963;28;20449;-71
2022/03/26 00:32:55;;;;;;;50.33;26.02;;;;;;;13.44;34.06;102210.97;5062720;28;20136;-71
2022/03/26 00:35:22;;;;;;;50.85;25.50;;;;;;;13.41;34.14;102208.56;5071743;28;20102;-72
2022/03/26 00:37:52;;;;;;;51.53;25.63;;;;;;;13.34;34.28;102205.59;5071439;28;20049;-73
2022/03/26 00:40:19;;;;;;;52.65;27.58;;;;;;;13.39;34.16;102211.41;5071996;28;20472;-73
2022/03/26 00:42:46;;;;;;;50.80;25.48;;;;;;;13.32;34.29;102200.34;5072362;28;20048;-72
2022/03/26 00:45:13;;;;;;;55.80;25.70;;;;;;;13.33;34.18;102203.91;5072293;28;20134;-72
2022/03/26 00:47:39;;;;;;;49.97;26.73;;;;;;;13.13;34.61;102197.63;5054228;28;20477;-72
2022/03/26 00:50:06;;;;;;;42.05;25.52;;;;;;;13.03;34.83;102197.63;5072535;28;20085;-72
2022/03/26 00:52:32;;;;;;;47.20;25.70;;;;;;;13.15;34.75;102195.66;5072681;28;20108;-72
2022/03/26 00:54:59;;;;;;;46.25;25.50;;;;;;;13.03;34.92;102188.69;5072257;28;20046;-73
2022/03/26 00:57:25;;;;;;;55.85;25.70;;;;;;;13.16;34.77;102191.97;5071827;28;20072;-71
2022/03/26 00:59:52;;;;;;;48.78;26.00;;;;;;;13.09;34.93;102185.44;5071659;28;20135;-72
2022/03/26 01:02:19;;;;;;;52.22;26.50;;;;;;;13.19;34.54;102189.00;5070937;28;20123;-73
2022/03/26 01:04:45;;;;;;;47.42;25.50;;;;;;;13.19;34.66;102191.69;5069247;28;20477;-72
2022/03/26 01:07:12;;;;;;;51.20;25.52;;;;;;;13.07;35.00;102190.13;5052525;28;20076;-73
2022/03/26 01:09:38;;;;;;;49.20;26.85;;;;;;;12.87;35.26;102187.41;5052467;28;20073;-73
2022/03/26 01:12:06;;;;;;;58.83;26.73;;;;;;;13.00;35.15;102186.28;5053248;28;20063;-73
2022/03/26 01:14:32;;;;;;;52.53;25.00;;;;;;;13.15;34.95;102184.03;5052646;28;20045;-73
2022/03/26 01:17:00;;;;;;;50.05;25.73;;;;;;;13.06;35.18;102185.72;5052741;28;20544;-73
2022/03/26 01:19:26;;;;;;;58.28;26.58;;;;;;;13.06;35.08;102183.03;5052224;28;20045;-72
2022/03/26 01:21:53;;;;;;;58.13;26.35;;;;;;;13.03;35.09;102186.00;5051266;28;20462;-72
2022/03/26 01:24:19;;;;;;;45.10;25.30;;;;;;;12.97;35.24;102181.16;5049456;28;20068;-72
2022/03/26 01:26:46;;;;;;;47.15;26.13;;;;;;;12.88;35.50;102178.34;5052023;28;20056;-72
2022/03/26 01:29:12;;;;;;;52.17;26.13;;;;;;;12.70;35.64;102180.00;5052146;28;20428;-73
2022/03/26 01:31:39;;;;;;;55.58;25.65;;;;;;;12.85;35.64;102177.78;5049863;28;20534;-73
2022/03/26 01:34:05;;;;;;;53.78;26.38;;;;;;;12.82;35.38;102169.97;5051411;28;20061;-72
2022/03/26 01:36:32;;;;;;;52.60;26.08;;;;;;;12.71;35.85;102176.28;5048988;28;20565;-72
2022/03/26 01:38:59;;;;;;;58.20;27.17;;;;;;;12.87;35.29;102171.25;5050971;28;20497;-72
2022/03/26 01:41:25;;;;;;;51.50;26.08;;;;;;;13.00;35.27;102172.81;5050559;28;20072;-72
2022/03/26 01:43:52;;;;;;;52.65;26.83;;;;;;;12.99;35.32;102176.50;5051383;28;20048;-72
2022/03/26 01:46:20;;;;;;;46.70;27.33;;;;;;;12.78;35.63;102169.38;5050975;28;20123;-72
2022/03/26 01:48:48;;;;;;;53.75;25.42;;;;;;;12.76;35.53;102168.66;5051150;28;20094;-73
2022/03/26 01:51:15;;;;;;;57.15;26.85;;;;;;;13.00;35.22;102172.81;5051584;28;20052;-72
2022/03/26 01:53:48;;;;;;;48.85;25.77;;;;;;;12.85;35.60;102158.91;5052118;28;20045;-71
2022/03/26 01:56:16;;;;;;;47.80;25.48;;;;;;;12.99;35.11;102168.44;5050757;28;20069;-71
2022/03/26 01:58:44;;;;;;;58.83;26.52;;;;;;;12.96;35.17;102163.31;5049350;28;20500;-71
2022/03/26 02:01:11;;;;;;;48.25;26.70;;;;;;;12.84;35.38;102166.16;5050884;28;20064;-72
2022/03/26 02:03:38;;;;;;;49.53;27.38;;;;;;;12.81;35.39;102166.44;5050788;28;20064;-72
2022/03/26 02:09:45;;;;;;;53.22;26.27;;;;;;;12.81;35.41;102158.34;5069421;28;20090;-72
2022/03/26 02:12:21;;;;;;;64.25;26.42;;;;;;;12.68;35.57;102155.03;5070785;28;20127;-72
2022/03/26 02:14:47;;;;;;;56.45;26.77;;;;;;;12.13;36.63;102152.75;5071191;28;20109;-72
2022/03/26 02:17:14;;;;;;;62.38;29.10;;;;;;;12.50;35.96;102156.69;5070622;28;20119;-73
2022/03/26 02:19:41;;;;;;;60.50;28.20;;;;;;;12.41;36.33;102153.81;5060058;28;20447;-73
2022/03/26 02:22:07;;;;;;;56.95;28.95;;;;;;;12.33;36.76;102150.97;5071615;28;20133;-73
2022/03/26 02:24:34;;;;;;;55.47;28.45;;;;;;;12.47;36.11;102152.44;5070935;28;20119;-73
2022/03/26 02:27:06;;;;;;;57.60;28.13;;;;;;;12.53;35.98;102156.44;5070968;28;20136;-73
2022/03/26 02:29:33;;;;;;;53.97;27.55;;;;;;;12.39;35.92;102155.81;5070355;28;20460;-73
2022/03/26 02:31:59;;;;;;;63.22;28.80;;;;;;;12.64;35.81;102156.31;5071060;28;20136;-73
2022/03/26 02:34:26;;;;;;;59.22;27.98;;;;;;;12.50;35.96;102154.00;5070778;28;20040;-73
2022/03/26 02:37:07;;;;;;;59.55;28.30;;;;;;;12.54;35.87;102147.34;5070650;28;20092;-72
2022/03/26 02:39:34;;;;;;;58.17;27.77;;;;;;;12.48;35.98;102155.97;5070855;28;20422;-73
2022/03/26 02:42:00;;;;;;;56.30;29.33;;;;;;;11.92;37.02;102158.16;5070668;28;20144;-73
2022/03/26 02:44:27;;;;;;;55.25;27.35;;;;;;;12.22;36.58;102139.47;5070764;28;20127;-72
2022/03/26 02:46:53;;;;;;;54.97;27.92;;;;;;;11.66;37.71;102140.78;5069833;28;20051;-74
2022/03/26 02:49:20;;;;;;;61.03;28.33;;;;;;;11.63;37.74;102136.47;5068611;28;20055;-72
2022/03/26 02:51:46;;;;;;;62.75;28.90;;;;;;;11.88;37.45;102132.53;5071237;28;20123;-73
2022/03/26 02:54:18;;;;;;;54.10;28.60;;;;;;;11.99;37.11;102128.06;5071093;28;20041;-73
2022/03/26 02:56:49;;;;;;;59.08;30.63;;;;;;;12.06;36.98;102127.38;5070964;28;20048;-72
2022/03/26 02:59:16;;;;;;;61.67;30.50;;;;;;;12.01;37.08;102134.16;5073960;28;20123;-73
2022/03/26 03:01:44;;;;;;;51.60;28.63;;;;;;;11.97;37.12;102132.72;5073971;28;20540;-73
2022/03/26 03:04:11;;;;;;;55.67;28.17;;;;;;;12.18;37.00;102136.22;5074409;28;20226;-73
2022/03/26 03:06:38;;;;;;;57.05;29.50;;;;;;;12.02;37.23;102138.53;5055247;28;20562;-73
2022/03/26 03:09:06;;;;;;;56.38;29.23;;;;;;;11.53;38.23;102140.94;5053894;28;20064;-73
2022/03/26 03:11:34;;;;;;;56.95;28.98;;;;;;;11.92;37.63;102133.97;5054767;28;20073;-73
2022/03/26 03:14:01;;;;;;;54.85;27.90;;;;;;;11.96;37.40;102137.25;5054765;28;20541;-72
2022/03/26 03:16:27;;;;;;;63.08;29.73;;;;;;;12.01;37.34;102134.16;5053896;28;20456;-73
2022/03/26 03:18:54;;;;;;;65.85;29.60;;;;;;;11.83;37.63;102140.16;5057590;28;20047;-73
2022/03/26 03:21:20;;;;;;;66.95;31.27;;;;;;;11.97;37.46;102133.59;5054343;28;20076;-73
2022/03/26 03:23:47;;;;;;;64.05;30.67;;;;;;;11.59;38.26;102135.06;5053937;28;20106;-73
2022/03/26 03:26:15;;;;;;;52.75;28.55;;;;;;;11.73;37.94;102133.88;5053341;28;20127;-72
2022/03/26 03:28:42;;;;;;;57.95;27.80;;;;;;;11.88;37.80;102129.00;5053866;28;20053;-73
2022/03/26 03:31:09;;;;;;;62.97;28.67;;;;;;;11.72;38.07;102134.00;5053236;28;20136;-72
2022/03/26 03:33:37;;;;;;;58.78;28.90;;;;;;;11.79;37.93;102138.72;5053859;28;20162;-72
2022/03/26 03:36:05;;;;;;;55.90;28.70;;;;;;;11.79;38.04;102132.47;5055055;28;20052;-73
2022/03/26 03:38:32;;;;;;;61.83;31.77;;;;;;;11.80;38.08;102137.75;5049813;28;20063;-73
2022/03/26 03:40:58;;;;;;;64.97;29.60;;;;;;;11.44;38.83;102129.13;5055034;28;20489;-73
2022/03/26 03:43:25;;;;;;;60.08;31.88;;;;;;;11.68;38.37;102126.19;5053677;28;20049;-74
2022/03/26 03:45:51;;;;;;;62.47;31.15;;;;;;;11.86;38.20;102125.59;5055539;28;20136;-74
2022/03/26 03:48:18;;;;;;;54.05;29.70;;;;;;;11.88;37.96;102123.63;5053645;28;20045;-74
2022/03/26 03:50:46;;;;;;;62.33;31.33;;;;;;;11.85;38.01;102129.25;5054807;28;20072;-74
2022/03/26 03:53:12;;;;;;;70.53;30.60;;;;;;;11.72;38.38;102134.00;5054484;28;20128;-74
2022/03/26 03:55:39;;;;;;;60.78;29.55;;;;;;;11.73;38.39;102128.50;5054146;28;20064;-74
2022/03/26 03:58:05;;;;;;;58.20;30.90;;;;;;;11.56;38.68;102129.09;5053348;28;20450;-74
2022/03/26 04:00:32;;;;;;;62.03;30.25;;;;;;;11.62;38.61;102128.53;5044184;28;20475;-74
2022/03/26 04:03:00;;;;;;;64.72;31.15;;;;;;;11.68;38.52;102139.66;5054108;28;20057;-74
2022/03/26 04:05:26;;;;;;;59.83;31.75;;;;;;;11.73;38.56;102141.94;5053192;28;20473;-74
2022/03/26 04:07:53;;;;;;;62.28;31.88;;;;;;;11.58;38.91;102137.84;5035457;28;20135;-74
2022/03/26 04:10:20;;;;;;;56.42;30.40;;;;;;;11.39;39.06;102135.91;5053741;28;20060;-74
2022/03/26 04:12:46;;;;;;;61.05;31.35;;;;;;;11.44;38.97;102131.81;5043171;28;20464;-74
2022/03/26 04:15:13;;;;;;;64.10;31.60;;;;;;;11.24;39.47;102124.63;5053578;28;20138;-74
2022/03/26 04:17:40;;;;;;;67.40;32.53;;;;;;;11.22;39.66;102123.91;5052868;28;20065;-74
2022/03/26 04:20:08;;;;;;;59.58;31.08;;;;;;;11.35;39.50;102127.25;5052163;28;20079;-74
2022/03/26 04:22:35;;;;;;;62.97;31.77;;;;;;;11.50;39.13;102126.94;5052617;28;20056;-74
2022/03/26 04:25:03;;;;;;;65.07;31.05;;;;;;;11.25;39.58;102130.88;5053298;28;20049;-74
2022/03/26 04:27:30;;;;;;;69.90;33.55;;;;;;;11.45;39.23;102122.81;5053935;28;20067;-74
2022/03/26 04:29:56;;;;;;;59.42;30.83;;;;;;;11.44;39.22;102121.06;5052480;28;20052;-73
2022/03/26 04:32:23;;;;;;;63.22;32.40;;;;;;;11.41;39.38;102134.81;5052906;28;20076;-74
2022/03/26 04:34:49;;;;;;;66.90;30.98;;;;;;;11.51;39.06;102134.00;5053209;28;20136;-74
2022/03/26 04:37:16;;;;;;;69.03;33.13;;;;;;;11.51;39.21;102148.28;5052873;28;20127;-74
2022/03/26 04:39:43;;;;;;;68.18;31.52;;;;;;;11.55;39.07;102135.44;5052203;28;20127;-74
2022/03/26 04:42:09;;;;;;;63.78;30.80;;;;;;;10.93;40.50;102132.59;5052425;28;20079;-74
2022/03/26 04:44:36;;;;;;;61.10;31.63;;;;;;;11.03;40.31;102127.28;5052343;28;20136;-74
2022/03/26 04:47:03;;;;;;;60.00;31.25;;;;;;;11.14;39.99;102129.94;5051678;28;20131;-74
2022/03/26 04:49:29;;;;;;;63.78;33.28;;;;;;;11.37;39.63;102130.66;5052751;28;20047;-74
2022/03/26 04:51:56;;;;;;;64.75;31.83;;;;;;;11.40;39.48;102141.13;5051704;28;20065;-74
2022/03/26 04:54:23;;;;;;;70.18;33.90;;;;;;;11.40;39.60;102132.22;5053290;28;20069;-74
2022/03/26 04:56:51;;;;;;;63.05;31.52;;;;;;;11.36;39.55;102139.69;5052251;28;20045;-74
2022/03/26 04:59:17;;;;;;;69.72;33.03;;;;;;;11.30;39.76;102131.31;5052524;28;20119;-74
2022/03/26 05:01:44;;;;;;;66.57;34.33;;;;;;;11.36;39.64;102134.31;5052202;28;20099;-74
2022/03/26 05:04:11;;;;;;;67.32;33.65;;;;;;;11.38;39.58;102140.44;5052465;28;20073;-74
2022/03/26 05:06:37;;;;;;;73.10;35.92;;;;;;;11.36;39.64;102139.69;5052019;28;20116;-74
2022/03/26 05:09:04;;;;;;;72.70;35.13;;;;;;;11.38;39.64;102142.28;5051711;28;20048;-74
2022/03/26 05:11:30;;;;;;;78.20;36.50;;;;;;;11.13;40.07;102138.09;5050976;28;20064;-74
2022/03/26 05:13:57;;;;;;;68.97;34.90;;;;;;;11.27;39.71;102145.84;5051331;28;20120;-74
2022/03/26 05:16:23;;;;;;;71.18;36.88;;;;;;;11.28;39.78;102141.34;5052214;28;20552;-74
2022/03/26 05:18:50;;;;;;;80.25;36.40;;;;;;;11.36;39.54;102145.06;5051478;28;20487;-74
2022/03/26 05:21:17;;;;;;;80.40;36.55;;;;;;;10.85;40.46;102145.78;5051053;28;20065;-74
2022/03/26 05:23:43;;;;;;;71.90;36.53;;;;;;;10.92;40.57;102146.97;5052294;28;20503;-74
2022/03/26 05:26:10;;;;;;;84.60;38.60;;;;;;;10.92;40.64;102138.06;5052011;28;20065;-74
2022/03/26 05:28:36;;;;;;;78.68;37.20;;;;;;;10.71;41.21;102133.50;5052227;28;20109;-74
2022/03/26 05:31:03;;;;;;;71.32;36.88;;;;;;;10.78;40.79;102152.63;5051432;28;20148;-74
2022/03/26 05:33:29;;;;;;;83.90;38.00;;;;;;;11.19;40.16;102143.81;5051780;28;20072;-74
2022/03/26 05:35:56;;;;;;;74.28;37.78;;;;;;;11.15;40.03;102146.91;5050770;28;20421;-74
2022/03/26 05:38:22;;;;;;;77.95;38.08;;;;;;;11.04;40.39;102144.28;5034512;28;20067;-74
2022/03/26 05:40:49;;;;;;;80.38;38.45;;;;;;;11.15;40.21;102146.91;5051921;28;20045;-74
2022/03/26 05:43:15;;;;;;;87.15;41.83;;;;;;;10.88;40.50;102142.00;5050977;28;20053;-74
2022/03/26 05:45:42;;;;;;;81.70;38.30;;;;;;;10.59;41.32;102147.09;5042521;28;20076;-74
2022/03/26 05:48:08;;;;;;;73.47;37.53;;;;;;;10.94;40.52;102142.34;5051582;28;20060;-74
2022/03/26 05:50:35;;;;;;;74.65;37.72;;;;;;;11.07;40.38;102149.38;5052568;28;20064;-74
2022/03/26 05:53:03;;;;;;;80.15;40.90;;;;;;;10.88;40.71;102150.06;5052983;28;20124;-74
2022/03/26 05:55:29;;;;;;;80.57;39.92;;;;;;;11.07;40.42;102144.03;5051196;28;20115;-74
2022/03/26 05:57:56;;;;;;;77.43;39.47;;;;;;;11.28;40.09;102144.03;5051382;28;20516;-74
2022/03/26 06:00:22;;;;;;;84.32;39.33;;;;;;;11.06;40.75;102147.66;5051327;28;20076;-74
2022/03/26 06:02:49;;;;;;;82.30;40.35;;;;;;;11.05;40.46;102144.13;5050851;28;20065;-74
2022/03/26 06:05:16;;;;;;;78.75;39.28;;;;;;;11.30;40.00;102147.44;5050940;28;20496;-74
2022/03/26 06:07:42;;;;;;;74.00;39.80;;;;;;;11.46;39.73;102153.22;5050680;28;20045;-74
2022/03/26 06:10:09;;;;;;;79.15;39.92;;;;;;;11.07;40.44;102147.56;5046508;28;20132;-74
2022/03/26 06:12:41;;;;;;;75.15;39.15;;;;;;;11.39;39.93;102146.66;5051745;28;20136;-74
2022/03/26 06:15:09;;;;;;;82.70;39.58;;;;;;;11.10;40.64;102149.97;5051185;28;20045;-74
2022/03/26 06:17:56;;;;;;;76.85;39.35;;;;;;;11.28;40.22;102154.78;5044101;28;20055;-74
2022/03/26 06:20:23;;;;;;;76.03;38.25;;;;;;;11.54;39.74;102149.84;5051035;28;20045;-74
2022/03/26 06:22:49;;;;;;;77.45;38.35;;;;;;;11.86;39.14;102153.34;5033520;28;20076;-74
2022/03/26 06:25:16;;;;;;;78.00;38.67;;;;;;;11.93;39.24;102142.88;5050447;28;20391;-74
2022/03/26 06:27:42;;;;;;;70.93;38.95;;;;;;;12.13;38.65;102150.03;5050954;28;20071;-74
2022/03/26 06:30:10;;;;;;;75.05;37.92;;;;;;;12.11;39.16;102145.81;5051483;28;20128;-74
2022/03/26 06:32:36;;;;;;;68.47;37.00;;;;;;;12.28;38.85;102145.16;5052629;28;20473;-74
2022/03/26 06:35:05;;;;;;;72.20;37.17;;;;;;;12.43;38.29;102144.78;5055443;28;20084;-74
2022/03/26 06:37:31;;;;;;;73.57;39.05;;;;;;;13.02;37.39;102143.91;5054944;28;20147;-74
2022/03/26 06:39:58;;;;;;;77.88;38.47;;;;;;;13.65;36.01;102148.78;5055574;28;20143;-74
2022/03/26 06:42:25;;;;;;;77.30;37.88;;;;;;;13.74;36.11;102137.97;5055732;28;20064;-74
2022/03/26 06:44:58;;;;;;;71.10;37.45;;;;;;;14.34;34.88;102124.13;5055181;28;20487;-75
2022/03/26 06:47:26;;;;;;;76.55;37.30;;;;;;;14.02;35.21;102114.63;5048254;28;20053;-75
2022/03/26 06:49:54;;;;;;;66.72;35.33;;;;;;;14.38;34.77;102119.25;5037879;28;20132;-75
2022/03/26 06:52:23;;;;;;;66.60;35.25;;;;;;;14.69;34.19;102131.41;5054663;28;20492;-75
2022/03/26 06:54:50;;;;;;;62.92;35.40;;;;;;;15.05;33.34;102123.38;5055529;28;20132;-75
2022/03/26 06:57:17;;;;;;;60.63;35.40;;;;;;;15.32;32.93;102125.06;5055103;28;20068;-75
2022/03/26 06:59:43;;;;;;;65.18;35.22;;;;;;;15.43;32.69;102124.84;5054147;28;20051;-75
2022/03/26 07:02:11;;;;;;;60.13;33.33;;;;;;;15.88;32.09;102131.94;5055272;28;20137;-75
2022/03/26 07:04:38;;;;;;;69.07;35.15;;;;;;;16.08;31.28;102129.78;5055389;28;20124;-75
2022/03/26 07:07:05;;;;;;;55.28;33.17;;;;;;;16.63;30.51;102132.03;5055125;28;20132;-75
2022/03/26 07:09:32;;;;;;;59.20;32.00;;;;;;;16.75;30.10;102124.47;5054498;28;20128;-75
2022/03/26 07:11:58;;;;;;;55.90;29.13;;;;;;;16.69;29.85;102143.25;5039335;28;20057;-76
2022/03/26 07:14:25;;;;;;;53.15;29.45;;;;;;;16.89;29.79;102133.81;5065443;28;20048;-75
2022/03/26 07:16:52;;;;;;;55.28;30.83;;;;;;;17.36;28.85;102134.00;5062171;28;20452;-75
2022/03/26 07:19:19;;;;;;;40.47;23.35;;;;;;;17.05;30.45;102130.25;5053555;28;20448;-67
2022/03/26 07:21:45;;;;;;;44.65;28.17;;;;;;;17.90;28.58;102130.69;5072201;28;20047;-76
2022/03/26 07:24:12;;;;;;;47.85;28.58;;;;;;;17.88;28.01;102123.72;5075333;28;20443;-75
2022/03/26 07:26:38;;;;;;;48.95;28.77;;;;;;;17.30;28.74;102134.66;5065421;28;20499;-75
2022/03/26 07:29:05;;;;;;;52.33;29.40;;;;;;;18.06;28.18;102138.78;5054479;28;20051;-74
2022/03/26 07:31:31;;;;;;;50.95;29.85;;;;;;;17.36;28.51;102142.13;5076187;28;20044;-76
2022/03/26 07:33:58;;;;;;;46.42;28.92;;;;;;;18.22;27.47;102134.31;5060907;28;20084;-75
2022/03/26 07:36:25;;;;;;;50.40;29.25;;;;;;;18.63;27.03;102143.09;5054633;28;20045;-75
2022/03/26 07:38:51;;;;;;;57.80;29.55;;;;;;;19.13;26.41;102130.03;5055533;28;20091;-74
2022/03/26 07:41:18;;;;;;;47.80;28.88;;;;;;;19.73;25.89;102140.88;5054838;28;20132;-74
2022/03/26 07:43:44;;;;;;;46.47;27.70;;;;;;;18.87;26.58;102136.66;5073514;28;20064;-74
2022/03/26 07:46:11;;;;;;;48.40;28.33;;;;;;;19.13;26.29;102138.19;5063121;28;20128;-74
2022/03/26 07:48:37;;;;;;;51.13;29.85;;;;;;;18.76;26.88;102134.38;5071590;28;20094;-74
2022/03/26 07:51:04;;;;;;;53.75;28.80;;;;;;;19.54;26.01;102135.09;5053285;28;20073;-75
2022/03/26 07:53:30;;;;;;;50.00;28.33;;;;;;;19.30;26.26;102130.72;5060773;28;20127;-74
2022/03/26 07:55:57;;;;;;;52.03;29.27;;;;;;;19.39;26.08;102122.31;5072357;28;20473;-75
2022/03/26 07:58:23;;;;;;;47.05;27.83;;;;;;;19.50;26.15;102124.59;5072121;28;20436;-75
2022/03/26 08:00:50;;;;;;;53.50;29.88;;;;;;;18.79;27.19;102120.38;5053974;28;20128;-75
2022/03/26 08:03:17;;;;;;;52.25;29.10;;;;;;;18.46;27.51;102123.31;5055188;28;20396;-74
2022/03/26 08:05:43;;;;;;;54.95;29.25;;;;;;;19.41;26.56;102120.22;5072860;28;20040;-75
2022/03/26 08:08:10;;;;;;;45.90;27.00;;;;;;;19.64;26.12;102114.75;5066047;28;20048;-76
2022/03/26 08:10:37;;;;;;;47.25;28.95;;;;;;;19.96;25.89;102124.44;5052858;28;20124;-75
2022/03/26 08:13:04;;;;;;;46.08;26.40;;;;;;;19.79;25.93;102124.81;5074485;28;20488;-75
2022/03/26 08:15:30;;;;;;;49.28;28.60;;;;;;;20.40;25.38;102123.56;5067851;28;20521;-74
2022/03/26 08:17:59;;;;;;;48.22;26.67;;;;;;;20.44;25.25;102127.59;5052737;28;20056;-75
2022/03/26 08:20:26;;;;;;;40.45;26.40;;;;;;;20.14;25.75;102125.94;5050588;28;20049;-75
2022/03/26 08:22:53;;;;;;;53.42;26.58;;;;;;;20.13;25.64;102135.16;5051958;28;20124;-75
2022/03/26 08:26:19;;;;;;;48.72;27.70;;;;;;;21.16;24.50;102135.94;5070637;28;20528;-75
2022/03/26 08:28:11;;;;;;;42.03;26.45;;;;;;;20.18;25.73;102128.09;5071834;28;20052;-75
2022/03/26 08:30:38;;;;;;;46.05;26.25;;;;;;;21.82;23.64;102129.09;5072072;28;20455;-75
2022/03/26 08:33:04;;;;;;;40.58;25.00;;;;;;;21.65;23.91;102127.69;5070977;28;20072;-76
2022/03/26 08:35:37;;;;;;;41.60;25.92;;;;;;;21.63;24.00;102129.75;5072644;28;20127;-75
2022/03/26 08:38:03;;;;;;;37.28;24.17;;;;;;;20.88;24.98;102129.34;5072348;28;20136;-75
2022/03/26 08:40:30;;;;;;;39.85;23.55;;;;;;;19.96;26.24;102123.59;5070100;28;20094;-75
2022/03/26 08:42:59;;;;;;;44.05;23.63;;;;;;;19.57;26.64;102132.00;5052232;28;20065;-74
2022/03/26 08:45:29;;;;;;;36.60;21.42;;;;;;;19.70;26.80;102130.38;5052247;28;20095;-74
2022/03/26 08:47:56;;;;;;;38.47;21.58;;;;;;;20.60;25.42;102126.53;5052222;28;20051;-74
2022/03/26 08:50:24;;;;;;;35.33;20.90;;;;;;;22.04;24.06;102120.78;5053127;28;20417;-75
2022/03/26 08:52:50;;;;;;;36.65;21.40;;;;;;;20.87;24.83;102121.34;5058230;28;20059;-75
2022/03/26 08:55:18;;;;;;;39.67;20.55;;;;;;;20.04;26.39;102134.41;5064273;28;20069;-75
2022/03/26 08:57:45;;;;;;;40.90;22.35;;;;;;;21.15;25.04;102135.09;5052061;28;20576;-76
2022/03/26 09:00:13;;;;;;;28.15;18.50;;;;;;;22.88;22.82;102123.22;5063219;28;20072;-76
2022/03/26 09:02:40;;;;;;;31.67;18.80;;;;;;;20.18;25.96;102125.38;5072185;28;20056;-75
2022/03/26 09:05:08;;;;;;;35.00;18.23;;;;;;;19.77;26.89;102135.91;5071801;28;20123;-75
2022/03/26 09:07:35;;;;;;;30.10;18.92;;;;;;;19.96;26.30;102132.59;5068599;28;20092;-75
2022/03/26 09:10:02;;;;;;;29.50;18.45;;;;;;;19.94;26.49;102137.41;5051753;28;20461;-76
2022/03/26 09:12:29;;;;;;;32.67;19.23;;;;;;;19.96;27.02;102138.06;5054326;28;20484;-76
2022/03/26 09:14:55;;;;;;;32.35;19.35;;;;;;;20.13;26.46;102130.53;5053829;28;20127;-76
2022/03/26 09:17:22;;;;;;;31.20;18.50;;;;;;;19.98;26.76;102129.72;5055567;28;20400;-76
2022/03/26 09:19:48;;;;;;;27.60;16.77;;;;;;;20.40;26.43;102136.38;5057676;28;20065;-75
2022/03/26 09:22:15;;;;;;;36.97;19.20;;;;;;;20.53;26.08;102132.97;5059252;28;20144;-75
2022/03/26 09:24:42;;;;;;;33.03;18.35;;;;;;;19.90;26.99;102136.13;5059336;28;20086;-74
2022/03/26 09:27:11;;;;;;;35.83;18.35;;;;;;;20.82;25.59;102130.09;5059874;28;20049;-75
2022/03/26 09:29:37;;;;;;;32.92;18.30;;;;;;;21.32;24.89;102135.63;5059257;28;20071;-75
2022/03/26 09:32:04;;;;;;;30.10;17.17;;;;;;;21.08;25.58;102134.16;5056935;28;20404;-75
2022/03/26 09:34:31;;;;;;;27.77;17.42;;;;;;;21.33;25.18;102132.72;5073481;28;20052;-75
2022/03/26 09:36:57;;;;;;;23.90;16.50;;;;;;;21.61;24.87;102135.44;5077845;28;20040;-75
2022/03/26 09:39:24;;;;;;;32.25;17.13;;;;;;;22.40;23.91;102127.91;5061393;28;20048;-75
2022/03/26 09:41:51;;;;;;;30.65;17.45;;;;;;;21.76;24.63;102127.13;5058982;28;20045;-75
2022/03/26 09:44:18;;;;;;;24.83;16.48;;;;;;;21.31;25.47;102133.94;5076969;28;20044;-76
2022/03/26 09:46:45;;;;;;;28.98;15.77;;;;;;;21.51;25.11;102142.28;5078044;28;20075;-75
2022/03/26 09:49:12;;;;;;;25.98;15.48;;;;;;;20.55;26.14;102136.31;5075216;28;20052;-75
2022/03/26 09:51:38;;;;;;;25.10;16.15;;;;;;;19.91;27.20;102129.63;5071412;28;20068;-75
2022/03/26 09:54:05;;;;;;;31.23;16.73;;;;;;;20.72;26.34;102132.31;5072205;28;20045;-75
2022/03/26 09:56:32;;;;;;;26.20;15.82;;;;;;;20.35;26.94;102139.63;5052907;28;20124;-75
2022/03/26 09:58:59;;;;;;;25.88;16.02;;;;;;;20.23;26.92;102134.84;5051267;28;20061;-75
2022/03/26 10:01:26;;;;;;;26.60;16.45;;;;;;;19.31;28.21;102125.13;5051430;28;20108;-74
2022/03/26 10:04:19;;;;;;;26.83;15.95;;;;;;;19.43;28.32;102129.06;5051855;28;20068;-74
2022/03/26 10:06:48;;;;;;;24.88;16.33;;;;;;;19.55;28.41;102125.88;5044720;28;20119;-75
2022/03/26 10:09:34;;;;;;;30.75;17.05;;;;;;;18.80;29.35;102127.53;5048613;28;20052;-73
2022/03/26 10:12:21;;;;;;;25.08;16.40;;;;;;;18.33;30.31;102136.63;5057496;28;20083;-74
2022/03/26 10:14:58;;;;;;;27.05;15.15;;;;;;;17.65;31.22;102138.03;5071111;28;20072;-74
2022/03/26 10:17:33;;;;;;;27.98;16.00;;;;;;;18.00;31.01;102136.75;5070963;28;20097;-74
2022/03/26 10:20:08;;;;;;;27.58;15.63;;;;;;;18.00;31.25;102127.75;5069986;28;20083;-74
2022/03/26 10:22:36;;;;;;;22.98;14.90;;;;;;;18.05;31.04;102130.78;5070461;28;20109;-76
2022/03/26 10:25:07;;;;;;;30.58;15.70;;;;;;;18.18;31.03;102127.56;5073216;28;20048;-76
2022/03/26 10:27:35;;;;;;;33.83;16.73;;;;;;;17.84;31.89;102129.50;5071824;28;20101;-76
2022/03/26 10:30:12;;;;;;;30.40;16.90;;;;;;;18.11;31.60;102131.97;5072510;28;20045;-76
2022/03/26 10:32:41;;;;;;;32.92;16.55;;;;;;;18.71;30.49;102126.72;5073643;28;20083;-76
2022/03/26 10:35:14;;;;;;;27.52;17.02;;;;;;;18.92;30.22;102134.25;5066754;28;20049;-76
2022/03/26 10:37:58;;;;;;;38.78;18.83;;;;;;;18.27;31.04;102131.91;5056353;28;20036;-76
2022/03/26 10:40:29;;;;;;;36.22;19.10;;;;;;;18.33;31.43;102135.78;5054977;28;20052;-76
2022/03/26 10:43:18;;;;;;;36.90;18.42;;;;;;;18.65;30.45;102137.47;5054948;28;20056;-76
2022/03/26 10:45:53;;;;;;;30.38;18.88;;;;;;;19.00;29.92;102138.81;5072504;28;20516;-76
2022/03/26 10:48:33;;;;;;;36.70;19.35;;;;;;;18.51;30.44;102122.78;5071679;28;20082;-75
2022/03/26 10:51:06;;;;;;;31.13;19.13;;;;;;;18.72;30.21;102131.16;5072423;28;20499;-74
2022/03/26 10:53:37;;;;;;;29.42;19.05;;;;;;;18.42;30.82;102129.31;5053988;28;20052;-74
2022/03/26 10:56:04;;;;;;;;;;;;;;;18.89;30.37;102129.16;5062857;28;20120;-76
2022/03/26 10:58:31;;;;;;;32.45;19.50;;;;;;;18.89;30.30;102126.44;5053683;28;19920;-76
2022/03/26 11:00:58;;;;;;;31.48;18.48;;;;;;;18.15;31.69;102131.47;5072926;28;20079;-75
2022/03/26 11:03:25;;;;;;;32.60;19.20;;;;;;;18.81;30.41;102133.81;5065439;28;20048;-78
2022/03/26 11:05:56;;;;;;;34.47;20.17;;;;;;;18.67;31.18;102132.72;5050588;28;20045;-77
2022/03/26 11:08:25;;;;;;;35.03;19.13;;;;;;;19.06;30.47;102131.78;5055324;28;20137;-78
2022/03/26 11:10:59;;;;;;;30.40;17.73;;;;;;;18.21;32.41;102127.22;5054120;28;20068;-77
2022/03/26 11:13:28;;;;;;;29.55;18.38;;;;;;;18.76;31.28;102131.66;5073709;28;20407;-78
2022/03/26 11:16:04;;;;;;;30.50;18.10;;;;;;;18.49;31.92;102120.25;5076584;28;20070;-78